sensor_id;sensor_type;location;lat;lon;timestamp;P1;durP1;ratioP1;P2;durP2;ratioP2
30553;SDS011;17335;50.720;7.452;2022-08-21T00:00:12;9.25;;;5.40;;
30553;SDS011;17335;50.720;7.452;2022-08-21T00:02:44;8.73;;;5.20;;
30553;SDS011;17335;50.720;7.452;2022-08-21T00:05:13;10.82;;;5.35;;
30553;SDS011;17335;50.720;7.452;2022-08-21T00:07:40;8.48;;;4.82;;
30553;SDS011;17335;50.720;7.452;2022-08-21T00:10:07;12.07;;;5.70;;
30553;SDS011;17335;50.720;7.452;2022-08-21T00:12:34;12.98;;;5.88;;
30553;SDS011;17335;50.720;7.452;2022-08-21T00:15:01;15.80;;;5.72;;
30553;SDS011;17335;50.720;7.452;2022-08-21T00:17:30;12.95;;;5.75;;
30553;SDS011;17335;50.720;7.452;2022-08-21T00:19:57;13.35;;;5.47;;
30553;SDS011;17335;50.720;7.452;2022-08-21T00:22:23;9.90;;;5.53;;
30553;SDS011;17335;50.720;7.452;2022-08-21T00:24:51;9.88;;;5.45;;
30553;SDS011;17335;50.720;7.452;2022-08-21T00:27:17;13.35;;;5.93;;
30553;SDS011;17335;50.720;7.452;2022-08-21T00:29:44;10.02;;;5.38;;
30553;SDS011;17335;50.720;7.452;2022-08-21T00:32:10;9.30;;;4.72;;
30553;SDS011;17335;50.720;7.452;2022-08-21T00:34:37;11.57;;;5.78;;
30553;SDS011;17335;50.720;7.452;2022-08-21T00:37:03;10.48;;;5.13;;
30553;SDS011;17335;50.720;7.452;2022-08-21T00:39:30;10.07;;;5.45;;
30553;SDS011;17335;50.720;7.452;2022-08-21T00:41:57;13.55;;;5.38;;
30553;SDS011;17335;50.720;7.452;2022-08-21T00:44:23;12.10;;;5.80;;
30553;SDS011;17335;50.720;7.452;2022-08-21T00:46:50;11.38;;;5.80;;
30553;SDS011;17335;50.720;7.452;2022-08-21T00:49:16;11.13;;;5.30;;
30553;SDS011;17335;50.720;7.452;2022-08-21T00:51:47;9.80;;;5.70;;
30553;SDS011;17335;50.720;7.452;2022-08-21T00:54:20;9.95;;;5.32;;
30553;SDS011;17335;50.720;7.452;2022-08-21T00:56:53;11.98;;;5.75;;
30553;SDS011;17335;50.720;7.452;2022-08-21T00:59:24;11.27;;;6.40;;
30553;SDS011;17335;50.720;7.452;2022-08-21T01:01:52;12.93;;;5.80;;
30553;SDS011;17335;50.720;7.452;2022-08-21T01:04:18;9.73;;;5.68;;
30553;SDS011;17335;50.720;7.452;2022-08-21T01:06:46;13.60;;;6.13;;
30553;SDS011;17335;50.720;7.452;2022-08-21T01:09:13;11.38;;;6.25;;
30553;SDS011;17335;50.720;7.452;2022-08-21T01:11:40;13.35;;;5.90;;
30553;SDS011;17335;50.720;7.452;2022-08-21T01:14:09;9.93;;;5.82;;
30553;SDS011;17335;50.720;7.452;2022-08-21T01:16:39;9.50;;;6.05;;
30553;SDS011;17335;50.720;7.452;2022-08-21T01:19:07;12.07;;;6.38;;
30553;SDS011;17335;50.720;7.452;2022-08-21T01:21:37;13.95;;;6.95;;
30553;SDS011;17335;50.720;7.452;2022-08-21T01:24:04;14.10;;;6.88;;
30553;SDS011;17335;50.720;7.452;2022-08-21T01:26:33;15.20;;;7.43;;
30553;SDS011;17335;50.720;7.452;2022-08-21T01:29:44;14.20;;;6.90;;
30553;SDS011;17335;50.720;7.452;2022-08-21T01:32:18;12.53;;;6.53;;
30553;SDS011;17335;50.720;7.452;2022-08-21T01:34:46;12.15;;;6.45;;
30553;SDS011;17335;50.720;7.452;2022-08-21T01:37:15;14.73;;;6.97;;
30553;SDS011;17335;50.720;7.452;2022-08-21T01:39:43;12.32;;;6.68;;
30553;SDS011;17335;50.720;7.452;2022-08-21T01:42:11;9.00;;;6.45;;
30553;SDS011;17335;50.720;7.452;2022-08-21T01:44:38;15.95;;;6.70;;
30553;SDS011;17335;50.720;7.452;2022-08-21T01:47:06;13.95;;;7.75;;
30553;SDS011;17335;50.720;7.452;2022-08-21T01:49:35;16.85;;;7.72;;
30553;SDS011;17335;50.720;7.452;2022-08-21T01:52:03;13.90;;;7.22;;
30553;SDS011;17335;50.720;7.452;2022-08-21T01:54:33;12.85;;;7.78;;
30553;SDS011;17335;50.720;7.452;2022-08-21T01:57:01;13.93;;;7.25;;
30553;SDS011;17335;50.720;7.452;2022-08-21T01:59:29;11.40;;;7.03;;
30553;SDS011;17335;50.720;7.452;2022-08-21T02:01:57;20.20;;;7.63;;
30553;SDS011;17335;50.720;7.452;2022-08-21T02:04:23;10.82;;;6.65;;
30553;SDS011;17335;50.720;7.452;2022-08-21T02:06:51;17.52;;;7.35;;
30553;SDS011;17335;50.720;7.452;2022-08-21T02:09:18;13.85;;;7.88;;
30553;SDS011;17335;50.720;7.452;2022-08-21T02:11:45;11.48;;;7.30;;
30553;SDS011;17335;50.720;7.452;2022-08-21T02:14:13;12.52;;;7.32;;
30553;SDS011;17335;50.720;7.452;2022-08-21T02:16:57;18.20;;;8.73;;
30553;SDS011;17335;50.720;7.452;2022-08-21T02:19:34;13.68;;;7.82;;
30553;SDS011;17335;50.720;7.452;2022-08-21T02:22:05;12.68;;;7.32;;
30553;SDS011;17335;50.720;7.452;2022-08-21T02:24:32;14.13;;;7.78;;
30553;SDS011;17335;50.720;7.452;2022-08-21T02:26:59;13.27;;;7.85;;
30553;SDS011;17335;50.720;7.452;2022-08-21T02:29:25;12.63;;;7.55;;
30553;SDS011;17335;50.720;7.452;2022-08-21T02:31:52;15.57;;;7.97;;
30553;SDS011;17335;50.720;7.452;2022-08-21T02:34:19;14.02;;;7.43;;
30553;SDS011;17335;50.720;7.452;2022-08-21T02:36:45;16.75;;;8.05;;
30553;SDS011;17335;50.720;7.452;2022-08-21T02:39:25;14.75;;;8.30;;
30553;SDS011;17335;50.720;7.452;2022-08-21T02:41:53;15.25;;;7.85;;
30553;SDS011;17335;50.720;7.452;2022-08-21T02:44:19;12.18;;;7.18;;
30553;SDS011;17335;50.720;7.452;2022-08-21T02:46:59;12.98;;;7.65;;
30553;SDS011;17335;50.720;7.452;2022-08-21T02:49:26;14.10;;;8.25;;
30553;SDS011;17335;50.720;7.452;2022-08-21T02:51:52;10.18;;;7.07;;
30553;SDS011;17335;50.720;7.452;2022-08-21T02:54:19;11.90;;;7.57;;
30553;SDS011;17335;50.720;7.452;2022-08-21T02:56:45;10.18;;;7.20;;
30553;SDS011;17335;50.720;7.452;2022-08-21T02:59:12;13.52;;;7.60;;
30553;SDS011;17335;50.720;7.452;2022-08-21T03:01:38;16.60;;;7.22;;
30553;SDS011;17335;50.720;7.452;2022-08-21T03:04:05;14.05;;;8.35;;
30553;SDS011;17335;50.720;7.452;2022-08-21T03:06:32;15.77;;;7.40;;
30553;SDS011;17335;50.720;7.452;2022-08-21T03:09:00;13.18;;;7.45;;
30553;SDS011;17335;50.720;7.452;2022-08-21T03:11:27;12.80;;;7.30;;
30553;SDS011;17335;50.720;7.452;2022-08-21T03:13:53;13.10;;;7.50;;
30553;SDS011;17335;50.720;7.452;2022-08-21T03:16:20;15.95;;;7.95;;
30553;SDS011;17335;50.720;7.452;2022-08-21T03:18:47;16.25;;;7.95;;
30553;SDS011;17335;50.720;7.452;2022-08-21T03:21:13;11.05;;;7.65;;
30553;SDS011;17335;50.720;7.452;2022-08-21T03:23:40;13.40;;;7.72;;
30553;SDS011;17335;50.720;7.452;2022-08-21T03:26:09;14.13;;;8.27;;
30553;SDS011;17335;50.720;7.452;2022-08-21T03:28:37;12.85;;;8.38;;
30553;SDS011;17335;50.720;7.452;2022-08-21T03:31:03;13.38;;;7.88;;
30553;SDS011;17335;50.720;7.452;2022-08-21T03:33:31;14.05;;;7.45;;
30553;SDS011;17335;50.720;7.452;2022-08-21T03:36:04;16.55;;;8.40;;
30553;SDS011;17335;50.720;7.452;2022-08-21T03:38:33;11.70;;;7.20;;
30553;SDS011;17335;50.720;7.452;2022-08-21T03:41:00;13.80;;;7.15;;
30553;SDS011;17335;50.720;7.452;2022-08-21T03:43:27;12.45;;;7.88;;
30553;SDS011;17335;50.720;7.452;2022-08-21T03:45:58;14.02;;;7.78;;
30553;SDS011;17335;50.720;7.452;2022-08-21T03:48:26;14.55;;;7.68;;
30553;SDS011;17335;50.720;7.452;2022-08-21T03:50:53;15.70;;;7.80;;
30553;SDS011;17335;50.720;7.452;2022-08-21T03:53:20;11.40;;;7.40;;
30553;SDS011;17335;50.720;7.452;2022-08-21T03:55:48;15.40;;;7.85;;
30553;SDS011;17335;50.720;7.452;2022-08-21T03:58:17;17.02;;;8.23;;
30553;SDS011;17335;50.720;7.452;2022-08-21T04:00:45;13.23;;;8.50;;
30553;SDS011;17335;50.720;7.452;2022-08-21T04:03:14;15.95;;;7.90;;
30553;SDS011;17335;50.720;7.452;2022-08-21T04:05:42;16.55;;;8.23;;
30553;SDS011;17335;50.720;7.452;2022-08-21T04:08:11;14.05;;;9.00;;
30553;SDS011;17335;50.720;7.452;2022-08-21T04:10:39;14.75;;;8.77;;
30553;SDS011;17335;50.720;7.452;2022-08-21T04:13:07;14.52;;;8.80;;
30553;SDS011;17335;50.720;7.452;2022-08-21T04:15:36;20.33;;;9.32;;
30553;SDS011;17335;50.720;7.452;2022-08-21T04:18:04;15.90;;;9.13;;
30553;SDS011;17335;50.720;7.452;2022-08-21T04:20:32;13.00;;;8.07;;
30553;SDS011;17335;50.720;7.452;2022-08-21T04:22:59;14.60;;;8.60;;
30553;SDS011;17335;50.720;7.452;2022-08-21T04:25:28;15.13;;;8.70;;
30553;SDS011;17335;50.720;7.452;2022-08-21T04:27:55;16.42;;;8.38;;
30553;SDS011;17335;50.720;7.452;2022-08-21T04:30:21;13.23;;;8.40;;
30553;SDS011;17335;50.720;7.452;2022-08-21T04:32:54;13.77;;;8.50;;
30553;SDS011;17335;50.720;7.452;2022-08-21T04:35:23;11.80;;;7.53;;
30553;SDS011;17335;50.720;7.452;2022-08-21T04:37:51;16.08;;;8.00;;
30553;SDS011;17335;50.720;7.452;2022-08-21T04:40:18;16.77;;;8.38;;
30553;SDS011;17335;50.720;7.452;2022-08-21T04:42:48;12.02;;;7.78;;
30553;SDS011;17335;50.720;7.452;2022-08-21T04:45:24;16.20;;;8.35;;
30553;SDS011;17335;50.720;7.452;2022-08-21T04:47:54;14.93;;;7.97;;
30553;SDS011;17335;50.720;7.452;2022-08-21T04:50:24;13.45;;;8.25;;
30553;SDS011;17335;50.720;7.452;2022-08-21T04:52:57;12.50;;;7.97;;
30553;SDS011;17335;50.720;7.452;2022-08-21T04:55:26;13.75;;;8.45;;
30553;SDS011;17335;50.720;7.452;2022-08-21T04:57:55;18.25;;;9.40;;
30553;SDS011;17335;50.720;7.452;2022-08-21T05:00:23;14.48;;;8.32;;
30553;SDS011;17335;50.720;7.452;2022-08-21T05:02:51;13.70;;;7.95;;
30553;SDS011;17335;50.720;7.452;2022-08-21T05:05:22;15.60;;;8.40;;
30553;SDS011;17335;50.720;7.452;2022-08-21T05:07:49;13.77;;;7.22;;
30553;SDS011;17335;50.720;7.452;2022-08-21T05:10:16;16.25;;;7.68;;
30553;SDS011;17335;50.720;7.452;2022-08-21T05:12:43;13.70;;;7.78;;
30553;SDS011;17335;50.720;7.452;2022-08-21T05:15:11;14.27;;;7.68;;
30553;SDS011;17335;50.720;7.452;2022-08-21T05:17:40;13.27;;;7.70;;
30553;SDS011;17335;50.720;7.452;2022-08-21T05:20:10;12.85;;;7.80;;
30553;SDS011;17335;50.720;7.452;2022-08-21T05:22:38;11.88;;;7.15;;
30553;SDS011;17335;50.720;7.452;2022-08-21T05:25:06;12.45;;;6.60;;
30553;SDS011;17335;50.720;7.452;2022-08-21T05:27:36;12.10;;;6.60;;
30553;SDS011;17335;50.720;7.452;2022-08-21T05:30:08;9.90;;;5.63;;
30553;SDS011;17335;50.720;7.452;2022-08-21T05:32:35;8.82;;;5.35;;
30553;SDS011;17335;50.720;7.452;2022-08-21T05:35:03;10.02;;;6.05;;
30553;SDS011;17335;50.720;7.452;2022-08-21T05:37:32;10.93;;;5.85;;
30553;SDS011;17335;50.720;7.452;2022-08-21T05:39:59;14.18;;;6.15;;
30553;SDS011;17335;50.720;7.452;2022-08-21T05:42:46;13.57;;;6.05;;
30553;SDS011;17335;50.720;7.452;2022-08-21T05:45:21;10.25;;;5.82;;
30553;SDS011;17335;50.720;7.452;2022-08-21T05:48:10;11.48;;;5.60;;
30553;SDS011;17335;50.720;7.452;2022-08-21T05:50:45;13.02;;;6.55;;
30553;SDS011;17335;50.720;7.452;2022-08-21T05:53:14;8.43;;;6.00;;
30553;SDS011;17335;50.720;7.452;2022-08-21T05:55:41;13.38;;;7.10;;
30553;SDS011;17335;50.720;7.452;2022-08-21T05:58:16;14.98;;;6.80;;
30553;SDS011;17335;50.720;7.452;2022-08-21T06:00:44;11.52;;;6.20;;
30553;SDS011;17335;50.720;7.452;2022-08-21T06:03:14;15.38;;;7.50;;
30553;SDS011;17335;50.720;7.452;2022-08-21T06:05:45;13.55;;;8.10;;
30553;SDS011;17335;50.720;7.452;2022-08-21T06:08:14;21.27;;;9.38;;
30553;SDS011;17335;50.720;7.452;2022-08-21T06:10:42;14.30;;;8.55;;
30553;SDS011;17335;50.720;7.452;2022-08-21T06:13:09;20.15;;;8.45;;
30553;SDS011;17335;50.720;7.452;2022-08-21T06:15:36;18.30;;;9.55;;
30553;SDS011;17335;50.720;7.452;2022-08-21T06:18:03;15.88;;;9.73;;
30553;SDS011;17335;50.720;7.452;2022-08-21T06:20:30;14.80;;;9.35;;
30553;SDS011;17335;50.720;7.452;2022-08-21T06:22:58;16.83;;;10.15;;
30553;SDS011;17335;50.720;7.452;2022-08-21T06:25:25;19.48;;;9.88;;
30553;SDS011;17335;50.720;7.452;2022-08-21T06:27:52;20.80;;;9.95;;
30553;SDS011;17335;50.720;7.452;2022-08-21T06:30:18;14.98;;;9.77;;
30553;SDS011;17335;50.720;7.452;2022-08-21T06:32:45;17.35;;;10.32;;
30553;SDS011;17335;50.720;7.452;2022-08-21T06:35:12;18.73;;;11.05;;
30553;SDS011;17335;50.720;7.452;2022-08-21T06:37:38;18.73;;;9.93;;
30553;SDS011;17335;50.720;7.452;2022-08-21T06:40:05;21.90;;;10.90;;
30553;SDS011;17335;50.720;7.452;2022-08-21T06:42:38;16.42;;;10.57;;
30553;SDS011;17335;50.720;7.452;2022-08-21T06:45:07;18.23;;;11.00;;
30553;SDS011;17335;50.720;7.452;2022-08-21T06:47:35;24.80;;;11.60;;
30553;SDS011;17335;50.720;7.452;2022-08-21T06:50:02;18.20;;;10.13;;
30553;SDS011;17335;50.720;7.452;2022-08-21T06:52:29;16.92;;;10.18;;
30553;SDS011;17335;50.720;7.452;2022-08-21T06:54:56;21.17;;;10.88;;
30553;SDS011;17335;50.720;7.452;2022-08-21T06:57:22;20.60;;;10.45;;
30553;SDS011;17335;50.720;7.452;2022-08-21T06:59:49;19.00;;;10.82;;
30553;SDS011;17335;50.720;7.452;2022-08-21T07:02:15;22.17;;;10.48;;
30553;SDS011;17335;50.720;7.452;2022-08-21T07:04:42;15.93;;;9.10;;
30553;SDS011;17335;50.720;7.452;2022-08-21T07:07:09;16.75;;;9.65;;
30553;SDS011;17335;50.720;7.452;2022-08-21T07:09:36;19.58;;;9.88;;
30553;SDS011;17335;50.720;7.452;2022-08-21T07:12:02;17.10;;;9.02;;
30553;SDS011;17335;50.720;7.452;2022-08-21T07:14:29;19.25;;;9.10;;
30553;SDS011;17335;50.720;7.452;2022-08-21T07:16:56;13.98;;;8.95;;
30553;SDS011;17335;50.720;7.452;2022-08-21T07:19:22;13.98;;;8.63;;
30553;SDS011;17335;50.720;7.452;2022-08-21T07:21:49;14.85;;;8.45;;
30553;SDS011;17335;50.720;7.452;2022-08-21T07:24:16;16.15;;;8.95;;
30553;SDS011;17335;50.720;7.452;2022-08-21T07:26:42;17.20;;;8.38;;
30553;SDS011;17335;50.720;7.452;2022-08-21T07:29:09;19.30;;;8.85;;
30553;SDS011;17335;50.720;7.452;2022-08-21T07:31:35;14.98;;;8.30;;
30553;SDS011;17335;50.720;7.452;2022-08-21T07:34:02;14.82;;;7.47;;
30553;SDS011;17335;50.720;7.452;2022-08-21T07:36:29;14.75;;;7.47;;
30553;SDS011;17335;50.720;7.452;2022-08-21T07:38:58;9.50;;;6.47;;
30553;SDS011;17335;50.720;7.452;2022-08-21T07:41:26;16.40;;;8.55;;
30553;SDS011;17335;50.720;7.452;2022-08-21T07:43:55;14.45;;;8.38;;
30553;SDS011;17335;50.720;7.452;2022-08-21T07:46:26;13.57;;;7.65;;
30553;SDS011;17335;50.720;7.452;2022-08-21T07:48:52;13.88;;;7.88;;
30553;SDS011;17335;50.720;7.452;2022-08-21T07:51:20;18.55;;;7.82;;
30553;SDS011;17335;50.720;7.452;2022-08-21T07:53:50;15.35;;;7.78;;
30553;SDS011;17335;50.720;7.452;2022-08-21T07:56:19;14.90;;;7.57;;
30553;SDS011;17335;50.720;7.452;2022-08-21T07:58:46;15.02;;;7.15;;
30553;SDS011;17335;50.720;7.452;2022-08-21T08:01:13;16.83;;;7.18;;
30553;SDS011;17335;50.720;7.452;2022-08-21T08:03:40;12.02;;;7.50;;
30553;SDS011;17335;50.720;7.452;2022-08-21T08:06:07;13.95;;;7.28;;
30553;SDS011;17335;50.720;7.452;2022-08-21T08:08:38;12.95;;;6.70;;
30553;SDS011;17335;50.720;7.452;2022-08-21T08:11:06;16.23;;;6.95;;
30553;SDS011;17335;50.720;7.452;2022-08-21T08:13:40;10.77;;;6.32;;
30553;SDS011;17335;50.720;7.452;2022-08-21T08:16:09;11.57;;;6.07;;
30553;SDS011;17335;50.720;7.452;2022-08-21T08:18:36;11.23;;;6.38;;
30553;SDS011;17335;50.720;7.452;2022-08-21T08:21:04;15.20;;;7.82;;
30553;SDS011;17335;50.720;7.452;2022-08-21T08:23:31;13.45;;;6.97;;
30553;SDS011;17335;50.720;7.452;2022-08-21T08:25:58;13.10;;;6.00;;
30553;SDS011;17335;50.720;7.452;2022-08-21T08:28:25;15.35;;;8.00;;
30553;SDS011;17335;50.720;7.452;2022-08-21T08:30:53;12.98;;;7.70;;
30553;SDS011;17335;50.720;7.452;2022-08-21T08:33:19;16.63;;;7.45;;
30553;SDS011;17335;50.720;7.452;2022-08-21T08:35:46;14.55;;;8.02;;
30553;SDS011;17335;50.720;7.452;2022-08-21T08:38:16;17.00;;;6.70;;
30553;SDS011;17335;50.720;7.452;2022-08-21T08:43:21;12.77;;;7.30;;
30553;SDS011;17335;50.720;7.452;2022-08-21T08:45:48;13.45;;;7.32;;
30553;SDS011;17335;50.720;7.452;2022-08-21T08:49:00;13.15;;;7.45;;
30553;SDS011;17335;50.720;7.452;2022-08-21T08:51:20;13.23;;;6.50;;
30553;SDS011;17335;50.720;7.452;2022-08-21T08:54:04;16.23;;;7.07;;
30553;SDS011;17335;50.720;7.452;2022-08-21T08:56:38;17.65;;;8.30;;
30553;SDS011;17335;50.720;7.452;2022-08-21T08:59:23;15.70;;;7.22;;
30553;SDS011;17335;50.720;7.452;2022-08-21T09:01:59;16.92;;;7.15;;
30553;SDS011;17335;50.720;7.452;2022-08-21T09:04:26;11.43;;;6.47;;
30553;SDS011;17335;50.720;7.452;2022-08-21T09:07:07;12.38;;;7.10;;
30553;SDS011;17335;50.720;7.452;2022-08-21T09:15:12;14.10;;;5.72;;
30553;SDS011;17335;50.720;7.452;2022-08-21T09:23:35;15.25;;;4.18;;
30553;SDS011;17335;50.720;7.452;2022-08-21T09:26:24;21.52;;;4.47;;
30553;SDS011;17335;50.720;7.452;2022-08-21T09:28:59;15.80;;;4.40;;
30553;SDS011;17335;50.720;7.452;2022-08-21T09:31:30;9.50;;;3.47;;
30553;SDS011;17335;50.720;7.452;2022-08-21T09:34:04;10.70;;;3.30;;
30553;SDS011;17335;50.720;7.452;2022-08-21T09:36:38;7.75;;;3.13;;
30553;SDS011;17335;50.720;7.452;2022-08-21T09:39:21;8.85;;;2.88;;
30553;SDS011;17335;50.720;7.452;2022-08-21T09:41:56;8.82;;;3.15;;
30553;SDS011;17335;50.720;7.452;2022-08-21T09:44:30;6.68;;;2.80;;
30553;SDS011;17335;50.720;7.452;2022-08-21T09:46:59;7.07;;;2.30;;
30553;SDS011;17335;50.720;7.452;2022-08-21T09:49:31;9.88;;;2.42;;
30553;SDS011;17335;50.720;7.452;2022-08-21T09:52:00;7.93;;;3.30;;
30553;SDS011;17335;50.720;7.452;2022-08-21T09:54:33;6.97;;;2.92;;
30553;SDS011;17335;50.720;7.452;2022-08-21T09:59:54;6.30;;;2.05;;
30553;SDS011;17335;50.720;7.452;2022-08-21T10:02:24;7.15;;;2.22;;
30553;SDS011;17335;50.720;7.452;2022-08-21T10:04:57;9.25;;;2.75;;
30553;SDS011;17335;50.720;7.452;2022-08-21T10:07:27;6.45;;;2.80;;
30553;SDS011;17335;50.720;7.452;2022-08-21T10:10:00;7.88;;;2.97;;
30553;SDS011;17335;50.720;7.452;2022-08-21T10:15:20;9.73;;;2.92;;
30553;SDS011;17335;50.720;7.452;2022-08-21T10:20:40;7.03;;;2.78;;
30553;SDS011;17335;50.720;7.452;2022-08-21T10:28:48;7.90;;;2.65;;
30553;SDS011;17335;50.720;7.452;2022-08-21T10:35:26;5.60;;;2.15;;
30553;SDS011;17335;50.720;7.452;2022-08-21T10:54:57;6.72;;;2.30;;
30553;SDS011;17335;50.720;7.452;2022-08-21T11:00:21;5.25;;;2.00;;
30553;SDS011;17335;50.720;7.452;2022-08-21T11:05:46;7.97;;;1.85;;
30553;SDS011;17335;50.720;7.452;2022-08-21T11:08:23;7.38;;;2.20;;
30553;SDS011;17335;50.720;7.452;2022-08-21T11:10:57;5.88;;;2.10;;
30553;SDS011;17335;50.720;7.452;2022-08-21T11:13:40;7.88;;;2.00;;
30553;SDS011;17335;50.720;7.452;2022-08-21T11:18:45;7.82;;;2.05;;
30553;SDS011;17335;50.720;7.452;2022-08-21T11:21:32;5.18;;;1.90;;
30553;SDS011;17335;50.720;7.452;2022-08-21T11:24:13;7.53;;;1.83;;
30553;SDS011;17335;50.720;7.452;2022-08-21T11:26:43;6.80;;;2.10;;
30553;SDS011;17335;50.720;7.452;2022-08-21T11:34:42;5.15;;;1.77;;
30553;SDS011;17335;50.720;7.452;2022-08-21T11:45:27;5.60;;;1.70;;
30553;SDS011;17335;50.720;7.452;2022-08-21T11:50:39;4.50;;;1.50;;
30553;SDS011;17335;50.720;7.452;2022-08-21T11:53:46;4.13;;;1.33;;
30553;SDS011;17335;50.720;7.452;2022-08-21T11:59:04;4.78;;;1.63;;
30553;SDS011;17335;50.720;7.452;2022-08-21T12:01:40;5.63;;;1.70;;
30553;SDS011;17335;50.720;7.452;2022-08-21T12:06:44;5.32;;;1.70;;
30553;SDS011;17335;50.720;7.452;2022-08-21T12:09:28;6.38;;;1.85;;
30553;SDS011;17335;50.720;7.452;2022-08-21T12:12:12;6.32;;;1.80;;
30553;SDS011;17335;50.720;7.452;2022-08-21T12:14:49;5.38;;;1.67;;
30553;SDS011;17335;50.720;7.452;2022-08-21T12:17:21;7.35;;;1.80;;
30553;SDS011;17335;50.720;7.452;2022-08-21T12:20:00;4.55;;;1.88;;
30553;SDS011;17335;50.720;7.452;2022-08-21T12:22:49;3.85;;;1.55;;
30553;SDS011;17335;50.720;7.452;2022-08-21T12:25:22;3.40;;;1.45;;
30553;SDS011;17335;50.720;7.452;2022-08-21T12:27:50;4.82;;;1.67;;
30553;SDS011;17335;50.720;7.452;2022-08-21T12:30:20;4.93;;;1.67;;
30553;SDS011;17335;50.720;7.452;2022-08-21T12:36:02;5.28;;;1.60;;
30553;SDS011;17335;50.720;7.452;2022-08-21T12:38:57;5.25;;;1.70;;
30553;SDS011;17335;50.720;7.452;2022-08-21T12:44:21;5.07;;;1.52;;
30553;SDS011;17335;50.720;7.452;2022-08-21T12:46:56;5.10;;;1.50;;
30553;SDS011;17335;50.720;7.452;2022-08-21T12:49:43;2.88;;;1.40;;
30553;SDS011;17335;50.720;7.452;2022-08-21T12:52:28;6.55;;;1.60;;
30553;SDS011;17335;50.720;7.452;2022-08-21T12:54:55;7.85;;;1.63;;
30553;SDS011;17335;50.720;7.452;2022-08-21T12:57:26;5.03;;;1.40;;
30553;SDS011;17335;50.720;7.452;2022-08-21T13:02:37;4.75;;;1.45;;
30553;SDS011;17335;50.720;7.452;2022-08-21T13:05:18;4.85;;;1.80;;
30553;SDS011;17335;50.720;7.452;2022-08-21T13:08:03;4.18;;;1.35;;
30553;SDS011;17335;50.720;7.452;2022-08-21T13:10:32;3.90;;;1.40;;
30553;SDS011;17335;50.720;7.452;2022-08-21T13:13:02;7.70;;;1.52;;
30553;SDS011;17335;50.720;7.452;2022-08-21T13:15:38;5.85;;;1.83;;
30553;SDS011;17335;50.720;7.452;2022-08-21T13:18:23;4.93;;;1.70;;
30553;SDS011;17335;50.720;7.452;2022-08-21T13:20:51;5.22;;;1.48;;
30553;SDS011;17335;50.720;7.452;2022-08-21T13:23:28;4.10;;;1.63;;
30553;SDS011;17335;50.720;7.452;2022-08-21T13:25:56;2.22;;;1.25;;
30553;SDS011;17335;50.720;7.452;2022-08-21T13:28:23;3.47;;;1.55;;
30553;SDS011;17335;50.720;7.452;2022-08-21T13:30:59;3.47;;;1.20;;
30553;SDS011;17335;50.720;7.452;2022-08-21T13:33:27;3.78;;;1.40;;
30553;SDS011;17335;50.720;7.452;2022-08-21T13:38:50;3.95;;;1.38;;
30553;SDS011;17335;50.720;7.452;2022-08-21T13:41:20;7.32;;;1.48;;
30553;SDS011;17335;50.720;7.452;2022-08-21T13:43:59;3.80;;;1.23;;
30553;SDS011;17335;50.720;7.452;2022-08-21T13:46:30;2.78;;;1.13;;
30553;SDS011;17335;50.720;7.452;2022-08-21T13:49:02;4.00;;;1.35;;
30553;SDS011;17335;50.720;7.452;2022-08-21T13:51:32;6.18;;;1.50;;
30553;SDS011;17335;50.720;7.452;2022-08-21T13:54:00;6.43;;;1.60;;
30553;SDS011;17335;50.720;7.452;2022-08-21T13:56:29;4.55;;;1.60;;
30553;SDS011;17335;50.720;7.452;2022-08-21T13:58:59;4.75;;;1.48;;
30553;SDS011;17335;50.720;7.452;2022-08-21T14:01:31;3.85;;;1.20;;
30553;SDS011;17335;50.720;7.452;2022-08-21T14:04:01;2.25;;;1.10;;
30553;SDS011;17335;50.720;7.452;2022-08-21T14:06:35;3.65;;;1.50;;
30553;SDS011;17335;50.720;7.452;2022-08-21T14:09:09;5.32;;;1.48;;
30553;SDS011;17335;50.720;7.452;2022-08-21T14:11:37;3.90;;;1.50;;
30553;SDS011;17335;50.720;7.452;2022-08-21T14:14:27;3.35;;;1.23;;
30553;SDS011;17335;50.720;7.452;2022-08-21T14:16:59;4.88;;;1.55;;
30553;SDS011;17335;50.720;7.452;2022-08-21T14:19:47;2.95;;;1.40;;
30553;SDS011;17335;50.720;7.452;2022-08-21T14:25:01;3.40;;;1.40;;
30553;SDS011;17335;50.720;7.452;2022-08-21T14:27:33;3.38;;;1.42;;
30553;SDS011;17335;50.720;7.452;2022-08-21T14:30:10;5.00;;;1.38;;
30553;SDS011;17335;50.720;7.452;2022-08-21T14:32:53;3.90;;;1.60;;
30553;SDS011;17335;50.720;7.452;2022-08-21T14:35:20;6.20;;;1.33;;
30553;SDS011;17335;50.720;7.452;2022-08-21T14:37:49;3.10;;;1.30;;
30553;SDS011;17335;50.720;7.452;2022-08-21T14:40:17;3.47;;;1.05;;
30553;SDS011;17335;50.720;7.452;2022-08-21T14:42:45;3.63;;;1.38;;
30553;SDS011;17335;50.720;7.452;2022-08-21T14:45:14;3.75;;;1.30;;
30553;SDS011;17335;50.720;7.452;2022-08-21T14:47:52;3.58;;;1.17;;
30553;SDS011;17335;50.720;7.452;2022-08-21T14:50:20;5.88;;;1.60;;
30553;SDS011;17335;50.720;7.452;2022-08-21T14:52:46;3.97;;;1.27;;
30553;SDS011;17335;50.720;7.452;2022-08-21T14:55:15;2.85;;;1.33;;
30553;SDS011;17335;50.720;7.452;2022-08-21T14:57:44;6.13;;;1.50;;
30553;SDS011;17335;50.720;7.452;2022-08-21T15:00:14;3.92;;;1.50;;
30553;SDS011;17335;50.720;7.452;2022-08-21T15:02:43;4.40;;;1.52;;
30553;SDS011;17335;50.720;7.452;2022-08-21T15:05:11;4.68;;;1.10;;
30553;SDS011;17335;50.720;7.452;2022-08-21T15:07:40;4.60;;;1.35;;
30553;SDS011;17335;50.720;7.452;2022-08-21T15:10:07;3.22;;;1.23;;
30553;SDS011;17335;50.720;7.452;2022-08-21T15:12:36;9.27;;;1.88;;
30553;SDS011;17335;50.720;7.452;2022-08-21T15:15:06;6.38;;;2.00;;
30553;SDS011;17335;50.720;7.452;2022-08-21T15:17:33;4.18;;;1.42;;
30553;SDS011;17335;50.720;7.452;2022-08-21T15:20:00;4.68;;;1.70;;
30553;SDS011;17335;50.720;7.452;2022-08-21T15:22:27;5.20;;;1.20;;
30553;SDS011;17335;50.720;7.452;2022-08-21T15:24:53;4.13;;;1.70;;
30553;SDS011;17335;50.720;7.452;2022-08-21T15:27:20;3.78;;;1.40;;
30553;SDS011;17335;50.720;7.452;2022-08-21T15:29:47;7.15;;;1.85;;
30553;SDS011;17335;50.720;7.452;2022-08-21T15:32:21;7.97;;;1.73;;
30553;SDS011;17335;50.720;7.452;2022-08-21T15:34:53;3.92;;;1.40;;
30553;SDS011;17335;50.720;7.452;2022-08-21T15:37:21;4.50;;;1.80;;
30553;SDS011;17335;50.720;7.452;2022-08-21T15:39:49;7.13;;;1.58;;
30553;SDS011;17335;50.720;7.452;2022-08-21T15:42:20;3.50;;;1.42;;
30553;SDS011;17335;50.720;7.452;2022-08-21T15:44:47;2.75;;;1.25;;
30553;SDS011;17335;50.720;7.452;2022-08-21T15:47:15;4.95;;;1.55;;
30553;SDS011;17335;50.720;7.452;2022-08-21T15:49:44;10.48;;;2.80;;
30553;SDS011;17335;50.720;7.452;2022-08-21T15:52:12;7.70;;;1.65;;
30553;SDS011;17335;50.720;7.452;2022-08-21T15:54:42;4.78;;;1.80;;
30553;SDS011;17335;50.720;7.452;2022-08-21T15:57:10;4.97;;;1.52;;
30553;SDS011;17335;50.720;7.452;2022-08-21T15:59:41;5.38;;;1.30;;
30553;SDS011;17335;50.720;7.452;2022-08-21T16:02:12;2.83;;;1.40;;
30553;SDS011;17335;50.720;7.452;2022-08-21T16:04:41;5.25;;;1.60;;
30553;SDS011;17335;50.720;7.452;2022-08-21T16:07:08;15.13;;;1.95;;
30553;SDS011;17335;50.720;7.452;2022-08-21T16:09:35;2.97;;;1.25;;
30553;SDS011;17335;50.720;7.452;2022-08-21T16:12:03;4.82;;;1.50;;
30553;SDS011;17335;50.720;7.452;2022-08-21T16:14:31;5.88;;;1.90;;
30553;SDS011;17335;50.720;7.452;2022-08-21T16:17:00;8.23;;;1.98;;
30553;SDS011;17335;50.720;7.452;2022-08-21T16:19:28;4.55;;;1.52;;
30553;SDS011;17335;50.720;7.452;2022-08-21T16:21:55;4.70;;;1.90;;
30553;SDS011;17335;50.720;7.452;2022-08-21T16:24:22;5.63;;;1.65;;
30553;SDS011;17335;50.720;7.452;2022-08-21T16:26:49;7.70;;;1.90;;
30553;SDS011;17335;50.720;7.452;2022-08-21T16:29:23;3.63;;;1.67;;